Pencader, United Kingdom
Current Conditions -  °F | °C
As of 9:50 AM on Tuesday 21 Oct 2014 (Local Time) from EGOP Reporting Station
Scattered Clouds Scattered Clouds  
Wind Chill: 54°   Ceiling: Unl
Heat Index: 54°   Visibility: 6mi
Dew Point: 45°   Wind: 32mph
Humidity: 72%   Direction: 280°W
Pressure: 29.77"   Gusts: NA
Location:  52°N, 4.26°W
Report Text: EGOP 210850Z 28028KT 9999 FEW025 SCT050 12/07 Q1008 BLU
Loading
Personal Weather Stations






























Interactive Weather Map
Tropical Storm Tracking
New forecast layout! Learn more

10-Day Weather Forecast

Advertisements
Track Severe Weather on mobile